sensor_id;sensor_type;location;lat;lon;timestamp;P1;durP1;ratioP1;P2;durP2;ratioP2
4756;SDS011;2392;52.578;13.426;2023-07-13T00:00:21;6.33;;;4.90;;
4756;SDS011;2392;52.578;13.426;2023-07-13T00:02:48;6.50;;;5.80;;
4756;SDS011;2392;52.578;13.426;2023-07-13T00:05:18;5.30;;;4.80;;
4756;SDS011;2392;52.578;13.426;2023-07-13T00:07:46;6.90;;;6.00;;
4756;SDS011;2392;52.578;13.426;2023-07-13T00:10:13;5.20;;;4.90;;
4756;SDS011;2392;52.578;13.426;2023-07-13T00:12:40;6.50;;;5.80;;
4756;SDS011;2392;52.578;13.426;2023-07-13T00:15:12;5.87;;;5.37;;
4756;SDS011;2392;52.578;13.426;2023-07-13T00:17:41;6.40;;;5.80;;
4756;SDS011;2392;52.578;13.426;2023-07-13T00:20:10;9.00;;;5.63;;
4756;SDS011;2392;52.578;13.426;2023-07-13T00:22:38;5.60;;;5.07;;
4756;SDS011;2392;52.578;13.426;2023-07-13T00:25:06;5.50;;;5.10;;
4756;SDS011;2392;52.578;13.426;2023-07-13T00:27:34;7.77;;;6.00;;
4756;SDS011;2392;52.578;13.426;2023-07-13T00:30:02;6.17;;;5.60;;
4756;SDS011;2392;52.578;13.426;2023-07-13T00:32:31;5.93;;;5.37;;
4756;SDS011;2392;52.578;13.426;2023-07-13T00:34:58;9.87;;;5.70;;
4756;SDS011;2392;52.578;13.426;2023-07-13T00:37:26;6.67;;;5.97;;
4756;SDS011;2392;52.578;13.426;2023-07-13T00:39:53;6.93;;;6.33;;
4756;SDS011;2392;52.578;13.426;2023-07-13T00:42:21;8.30;;;6.57;;
4756;SDS011;2392;52.578;13.426;2023-07-13T00:45:01;10.60;;;5.70;;
4756;SDS011;2392;52.578;13.426;2023-07-13T00:47:30;6.10;;;5.63;;
4756;SDS011;2392;52.578;13.426;2023-07-13T00:49:59;8.37;;;6.17;;
4756;SDS011;2392;52.578;13.426;2023-07-13T00:52:27;7.40;;;6.30;;
4756;SDS011;2392;52.578;13.426;2023-07-13T00:54:55;11.13;;;5.90;;
4756;SDS011;2392;52.578;13.426;2023-07-13T00:57:23;9.43;;;6.17;;
4756;SDS011;2392;52.578;13.426;2023-07-13T00:59:52;6.60;;;5.90;;
4756;SDS011;2392;52.578;13.426;2023-07-13T01:02:33;7.80;;;5.80;;
4756;SDS011;2392;52.578;13.426;2023-07-13T01:05:01;6.23;;;5.60;;
4756;SDS011;2392;52.578;13.426;2023-07-13T01:07:35;7.50;;;5.80;;
4756;SDS011;2392;52.578;13.426;2023-07-13T01:10:02;6.57;;;5.97;;
4756;SDS011;2392;52.578;13.426;2023-07-13T01:12:30;6.83;;;6.23;;
4756;SDS011;2392;52.578;13.426;2023-07-13T01:14:57;7.00;;;6.20;;
4756;SDS011;2392;52.578;13.426;2023-07-13T01:17:25;6.53;;;5.87;;
4756;SDS011;2392;52.578;13.426;2023-07-13T01:19:55;6.30;;;5.70;;
4756;SDS011;2392;52.578;13.426;2023-07-13T01:22:23;7.23;;;5.47;;
4756;SDS011;2392;52.578;13.426;2023-07-13T01:24:52;6.57;;;5.97;;
4756;SDS011;2392;52.578;13.426;2023-07-13T01:27:21;9.63;;;6.03;;
4756;SDS011;2392;52.578;13.426;2023-07-13T01:29:53;5.90;;;5.30;;
4756;SDS011;2392;52.578;13.426;2023-07-13T01:32:28;5.67;;;5.27;;
4756;SDS011;2392;52.578;13.426;2023-07-13T01:34:58;8.47;;;5.73;;
4756;SDS011;2392;52.578;13.426;2023-07-13T01:37:26;6.50;;;5.80;;
4756;SDS011;2392;52.578;13.426;2023-07-13T01:40:01;6.33;;;5.60;;
4756;SDS011;2392;52.578;13.426;2023-07-13T01:42:30;5.40;;;5.00;;
4756;SDS011;2392;52.578;13.426;2023-07-13T01:44:57;6.67;;;5.47;;
4756;SDS011;2392;52.578;13.426;2023-07-13T01:47:25;8.20;;;5.80;;
4756;SDS011;2392;52.578;13.426;2023-07-13T01:49:53;6.03;;;5.30;;
4756;SDS011;2392;52.578;13.426;2023-07-13T01:52:20;6.93;;;5.43;;
4756;SDS011;2392;52.578;13.426;2023-07-13T01:54:51;6.00;;;5.60;;
4756;SDS011;2392;52.578;13.426;2023-07-13T01:57:19;11.80;;;6.00;;
4756;SDS011;2392;52.578;13.426;2023-07-13T01:59:47;6.97;;;5.80;;
4756;SDS011;2392;52.578;13.426;2023-07-13T02:02:15;6.47;;;5.90;;
4756;SDS011;2392;52.578;13.426;2023-07-13T02:04:43;6.13;;;5.60;;
4756;SDS011;2392;52.578;13.426;2023-07-13T02:07:10;7.13;;;6.27;;
4756;SDS011;2392;52.578;13.426;2023-07-13T02:09:38;6.70;;;6.20;;
4756;SDS011;2392;52.578;13.426;2023-07-13T02:12:07;7.30;;;5.90;;
4756;SDS011;2392;52.578;13.426;2023-07-13T02:14:34;7.07;;;6.47;;
4756;SDS011;2392;52.578;13.426;2023-07-13T02:17:01;6.00;;;5.50;;
4756;SDS011;2392;52.578;13.426;2023-07-13T02:19:29;6.73;;;6.13;;
4756;SDS011;2392;52.578;13.426;2023-07-13T02:21:56;6.30;;;5.70;;
4756;SDS011;2392;52.578;13.426;2023-07-13T02:24:24;9.33;;;6.50;;
4756;SDS011;2392;52.578;13.426;2023-07-13T02:26:52;6.03;;;5.53;;
4756;SDS011;2392;52.578;13.426;2023-07-13T02:29:21;8.50;;;6.60;;
4756;SDS011;2392;52.578;13.426;2023-07-13T02:31:48;5.73;;;5.30;;
4756;SDS011;2392;52.578;13.426;2023-07-13T02:34:16;5.83;;;5.30;;
4756;SDS011;2392;52.578;13.426;2023-07-13T02:36:43;6.17;;;5.57;;
4756;SDS011;2392;52.578;13.426;2023-07-13T02:39:13;12.67;;;6.57;;
4756;SDS011;2392;52.578;13.426;2023-07-13T02:41:41;6.57;;;6.13;;
4756;SDS011;2392;52.578;13.426;2023-07-13T02:44:08;6.80;;;6.23;;
4756;SDS011;2392;52.578;13.426;2023-07-13T02:46:37;7.00;;;6.30;;
4756;SDS011;2392;52.578;13.426;2023-07-13T02:49:04;6.83;;;6.13;;
4756;SDS011;2392;52.578;13.426;2023-07-13T02:51:31;7.23;;;6.60;;
4756;SDS011;2392;52.578;13.426;2023-07-13T02:54:00;7.13;;;6.43;;
4756;SDS011;2392;52.578;13.426;2023-07-13T02:56:29;7.53;;;6.20;;
4756;SDS011;2392;52.578;13.426;2023-07-13T02:58:58;6.80;;;6.17;;
4756;SDS011;2392;52.578;13.426;2023-07-13T03:01:26;7.30;;;5.97;;
4756;SDS011;2392;52.578;13.426;2023-07-13T03:03:54;6.30;;;5.70;;
4756;SDS011;2392;52.578;13.426;2023-07-13T03:06:22;7.17;;;5.87;;
4756;SDS011;2392;52.578;13.426;2023-07-13T03:08:52;6.50;;;5.97;;
4756;SDS011;2392;52.578;13.426;2023-07-13T03:11:20;6.50;;;5.90;;
4756;SDS011;2392;52.578;13.426;2023-07-13T03:13:53;6.57;;;5.53;;
4756;SDS011;2392;52.578;13.426;2023-07-13T03:16:22;8.90;;;6.10;;
4756;SDS011;2392;52.578;13.426;2023-07-13T03:18:51;6.53;;;6.03;;
4756;SDS011;2392;52.578;13.426;2023-07-13T03:21:20;7.13;;;6.40;;
4756;SDS011;2392;52.578;13.426;2023-07-13T03:23:47;7.47;;;6.20;;
4756;SDS011;2392;52.578;13.426;2023-07-13T03:26:15;6.87;;;5.90;;
4756;SDS011;2392;52.578;13.426;2023-07-13T03:28:44;7.17;;;6.50;;
4756;SDS011;2392;52.578;13.426;2023-07-13T03:31:17;7.70;;;6.10;;
4756;SDS011;2392;52.578;13.426;2023-07-13T03:33:46;7.47;;;6.00;;
4756;SDS011;2392;52.578;13.426;2023-07-13T03:36:15;7.20;;;6.60;;
4756;SDS011;2392;52.578;13.426;2023-07-13T03:38:46;6.00;;;5.60;;
4756;SDS011;2392;52.578;13.426;2023-07-13T03:41:15;6.67;;;6.10;;
4756;SDS011;2392;52.578;13.426;2023-07-13T03:43:43;6.50;;;6.00;;
4756;SDS011;2392;52.578;13.426;2023-07-13T03:46:11;6.17;;;5.67;;
4756;SDS011;2392;52.578;13.426;2023-07-13T03:48:39;6.40;;;5.80;;
4756;SDS011;2392;52.578;13.426;2023-07-13T03:51:08;6.90;;;5.60;;
4756;SDS011;2392;52.578;13.426;2023-07-13T03:53:38;5.67;;;5.17;;
4756;SDS011;2392;52.578;13.426;2023-07-13T03:56:08;10.20;;;5.57;;
4756;SDS011;2392;52.578;13.426;2023-07-13T03:58:36;7.10;;;6.40;;
4756;SDS011;2392;52.578;13.426;2023-07-13T04:01:11;6.40;;;5.90;;
4756;SDS011;2392;52.578;13.426;2023-07-13T04:03:39;6.37;;;5.87;;
4756;SDS011;2392;52.578;13.426;2023-07-13T04:06:07;6.87;;;6.00;;
4756;SDS011;2392;52.578;13.426;2023-07-13T04:08:46;6.33;;;5.73;;
4756;SDS011;2392;52.578;13.426;2023-07-13T04:11:16;8.90;;;5.67;;
4756;SDS011;2392;52.578;13.426;2023-07-13T04:13:44;8.40;;;5.77;;
4756;SDS011;2392;52.578;13.426;2023-07-13T04:16:11;7.47;;;6.77;;
4756;SDS011;2392;52.578;13.426;2023-07-13T04:18:38;9.67;;;7.20;;
4756;SDS011;2392;52.578;13.426;2023-07-13T04:21:06;7.00;;;6.30;;
4756;SDS011;2392;52.578;13.426;2023-07-13T04:23:34;7.13;;;6.10;;
4756;SDS011;2392;52.578;13.426;2023-07-13T04:26:01;6.30;;;5.77;;
4756;SDS011;2392;52.578;13.426;2023-07-13T04:28:29;12.20;;;6.20;;
4756;SDS011;2392;52.578;13.426;2023-07-13T04:30:57;6.17;;;5.70;;
4756;SDS011;2392;52.578;13.426;2023-07-13T04:33:24;6.67;;;6.10;;
4756;SDS011;2392;52.578;13.426;2023-07-13T04:35:51;6.30;;;5.70;;
4756;SDS011;2392;52.578;13.426;2023-07-13T04:38:19;10.00;;;6.33;;
4756;SDS011;2392;52.578;13.426;2023-07-13T04:40:47;6.83;;;6.20;;
4756;SDS011;2392;52.578;13.426;2023-07-13T04:43:14;7.60;;;5.73;;
4756;SDS011;2392;52.578;13.426;2023-07-13T04:45:42;7.73;;;5.73;;
4756;SDS011;2392;52.578;13.426;2023-07-13T04:48:09;6.13;;;5.50;;
4756;SDS011;2392;52.578;13.426;2023-07-13T04:50:36;7.50;;;5.77;;
4756;SDS011;2392;52.578;13.426;2023-07-13T04:53:03;7.03;;;6.33;;
4756;SDS011;2392;52.578;13.426;2023-07-13T04:55:31;6.63;;;6.10;;
4756;SDS011;2392;52.578;13.426;2023-07-13T04:57:58;8.50;;;6.43;;
4756;SDS011;2392;52.578;13.426;2023-07-13T05:00:25;6.40;;;5.80;;
4756;SDS011;2392;52.578;13.426;2023-07-13T05:02:55;7.17;;;6.47;;
4756;SDS011;2392;52.578;13.426;2023-07-13T05:05:22;5.27;;;4.80;;
4756;SDS011;2392;52.578;13.426;2023-07-13T05:07:50;6.00;;;5.30;;
4756;SDS011;2392;52.578;13.426;2023-07-13T05:10:17;10.00;;;6.10;;
4756;SDS011;2392;52.578;13.426;2023-07-13T05:12:45;5.70;;;5.20;;
4756;SDS011;2392;52.578;13.426;2023-07-13T05:15:12;4.93;;;4.50;;
4756;SDS011;2392;52.578;13.426;2023-07-13T05:17:39;6.00;;;5.40;;
4756;SDS011;2392;52.578;13.426;2023-07-13T05:20:08;6.23;;;5.40;;
4756;SDS011;2392;52.578;13.426;2023-07-13T05:22:36;5.40;;;4.90;;
4756;SDS011;2392;52.578;13.426;2023-07-13T05:25:04;10.33;;;5.93;;
4756;SDS011;2392;52.578;13.426;2023-07-13T05:27:32;6.30;;;5.70;;
4756;SDS011;2392;52.578;13.426;2023-07-13T05:30:00;5.67;;;5.27;;
4756;SDS011;2392;52.578;13.426;2023-07-13T05:32:27;7.00;;;5.57;;
4756;SDS011;2392;52.578;13.426;2023-07-13T05:34:54;9.80;;;5.70;;
4756;SDS011;2392;52.578;13.426;2023-07-13T05:37:22;5.90;;;5.30;;
4756;SDS011;2392;52.578;13.426;2023-07-13T05:39:49;5.87;;;5.37;;
4756;SDS011;2392;52.578;13.426;2023-07-13T05:42:16;5.00;;;4.67;;
4756;SDS011;2392;52.578;13.426;2023-07-13T05:44:43;6.27;;;5.53;;
4756;SDS011;2392;52.578;13.426;2023-07-13T05:47:10;5.87;;;5.47;;
4756;SDS011;2392;52.578;13.426;2023-07-13T05:49:39;5.00;;;4.60;;
4756;SDS011;2392;52.578;13.426;2023-07-13T05:52:06;7.00;;;5.33;;
4756;SDS011;2392;52.578;13.426;2023-07-13T05:54:35;7.00;;;4.50;;
4756;SDS011;2392;52.578;13.426;2023-07-13T05:57:02;5.70;;;4.77;;
4756;SDS011;2392;52.578;13.426;2023-07-13T05:59:29;4.80;;;4.50;;
4756;SDS011;2392;52.578;13.426;2023-07-13T06:01:56;5.07;;;4.67;;
4756;SDS011;2392;52.578;13.426;2023-07-13T06:04:23;5.10;;;4.60;;
4756;SDS011;2392;52.578;13.426;2023-07-13T06:06:50;6.60;;;4.50;;
4756;SDS011;2392;52.578;13.426;2023-07-13T06:09:17;4.70;;;4.30;;
4756;SDS011;2392;52.578;13.426;2023-07-13T06:11:45;4.37;;;3.90;;
4756;SDS011;2392;52.578;13.426;2023-07-13T06:14:12;6.37;;;4.03;;
4756;SDS011;2392;52.578;13.426;2023-07-13T06:16:39;7.47;;;3.87;;
4756;SDS011;2392;52.578;13.426;2023-07-13T06:19:07;5.07;;;4.77;;
4756;SDS011;2392;52.578;13.426;2023-07-13T06:21:34;6.40;;;4.20;;
4756;SDS011;2392;52.578;13.426;2023-07-13T06:24:01;7.43;;;5.10;;
4756;SDS011;2392;52.578;13.426;2023-07-13T06:26:28;7.33;;;4.40;;
4756;SDS011;2392;52.578;13.426;2023-07-13T06:28:56;4.70;;;4.30;;
4756;SDS011;2392;52.578;13.426;2023-07-13T06:31:23;4.27;;;3.93;;
4756;SDS011;2392;52.578;13.426;2023-07-13T06:33:50;7.27;;;4.67;;
4756;SDS011;2392;52.578;13.426;2023-07-13T06:36:17;4.57;;;4.27;;
4756;SDS011;2392;52.578;13.426;2023-07-13T06:38:45;8.80;;;4.60;;
4756;SDS011;2392;52.578;13.426;2023-07-13T06:41:13;4.33;;;3.93;;
4756;SDS011;2392;52.578;13.426;2023-07-13T06:43:40;4.67;;;4.30;;
4756;SDS011;2392;52.578;13.426;2023-07-13T06:46:08;6.10;;;3.60;;
4756;SDS011;2392;52.578;13.426;2023-07-13T06:48:36;7.07;;;3.93;;
4756;SDS011;2392;52.578;13.426;2023-07-13T06:51:03;10.07;;;4.80;;
4756;SDS011;2392;52.578;13.426;2023-07-13T06:53:30;4.67;;;4.07;;
4756;SDS011;2392;52.578;13.426;2023-07-13T06:55:57;3.90;;;3.57;;
4756;SDS011;2392;52.578;13.426;2023-07-13T06:58:24;5.93;;;3.80;;
4756;SDS011;2392;52.578;13.426;2023-07-13T07:00:51;5.70;;;4.17;;
4756;SDS011;2392;52.578;13.426;2023-07-13T07:03:20;6.10;;;4.57;;
4756;SDS011;2392;52.578;13.426;2023-07-13T07:05:47;6.50;;;4.97;;
4756;SDS011;2392;52.578;13.426;2023-07-13T07:08:14;4.20;;;3.90;;
4756;SDS011;2392;52.578;13.426;2023-07-13T07:10:41;4.60;;;3.77;;
4756;SDS011;2392;52.578;13.426;2023-07-13T07:13:08;4.33;;;4.03;;
4756;SDS011;2392;52.578;13.426;2023-07-13T07:15:35;9.00;;;3.83;;
4756;SDS011;2392;52.578;13.426;2023-07-13T07:18:02;3.73;;;3.43;;
4756;SDS011;2392;52.578;13.426;2023-07-13T07:20:31;4.03;;;3.73;;
4756;SDS011;2392;52.578;13.426;2023-07-13T07:22:58;3.83;;;3.63;;
4756;SDS011;2392;52.578;13.426;2023-07-13T07:25:25;3.80;;;3.50;;
4756;SDS011;2392;52.578;13.426;2023-07-13T07:27:52;4.37;;;3.90;;
4756;SDS011;2392;52.578;13.426;2023-07-13T07:30:19;5.03;;;4.60;;
4756;SDS011;2392;52.578;13.426;2023-07-13T07:32:46;4.13;;;3.83;;
4756;SDS011;2392;52.578;13.426;2023-07-13T07:35:13;3.60;;;3.40;;
4756;SDS011;2392;52.578;13.426;2023-07-13T07:37:42;3.63;;;3.43;;
4756;SDS011;2392;52.578;13.426;2023-07-13T07:40:10;4.20;;;3.60;;
4756;SDS011;2392;52.578;13.426;2023-07-13T07:42:37;4.00;;;3.33;;
4756;SDS011;2392;52.578;13.426;2023-07-13T07:45:05;3.90;;;3.60;;
4756;SDS011;2392;52.578;13.426;2023-07-13T07:47:32;4.33;;;3.07;;
4756;SDS011;2392;52.578;13.426;2023-07-13T07:49:59;4.20;;;3.43;;
4756;SDS011;2392;52.578;13.426;2023-07-13T07:52:26;3.20;;;3.10;;
4756;SDS011;2392;52.578;13.426;2023-07-13T07:54:54;3.40;;;3.20;;
4756;SDS011;2392;52.578;13.426;2023-07-13T07:57:21;3.50;;;3.30;;
4756;SDS011;2392;52.578;13.426;2023-07-13T07:59:48;3.13;;;2.93;;
4756;SDS011;2392;52.578;13.426;2023-07-13T08:02:15;3.87;;;3.50;;
4756;SDS011;2392;52.578;13.426;2023-07-13T08:04:42;4.37;;;3.67;;
4756;SDS011;2392;52.578;13.426;2023-07-13T08:07:09;3.50;;;3.20;;
4756;SDS011;2392;52.578;13.426;2023-07-13T08:09:36;3.23;;;3.03;;
4756;SDS011;2392;52.578;13.426;2023-07-13T08:12:05;3.43;;;3.20;;
4756;SDS011;2392;52.578;13.426;2023-07-13T08:14:32;5.50;;;3.83;;
4756;SDS011;2392;52.578;13.426;2023-07-13T08:16:59;3.50;;;3.33;;
4756;SDS011;2392;52.578;13.426;2023-07-13T08:19:27;3.20;;;3.10;;
4756;SDS011;2392;52.578;13.426;2023-07-13T08:21:54;4.47;;;3.10;;
4756;SDS011;2392;52.578;13.426;2023-07-13T08:24:21;5.37;;;3.80;;
4756;SDS011;2392;52.578;13.426;2023-07-13T08:26:50;3.73;;;3.53;;
4756;SDS011;2392;52.578;13.426;2023-07-13T08:29:18;4.00;;;3.70;;
4756;SDS011;2392;52.578;13.426;2023-07-13T08:31:46;3.27;;;3.07;;
4756;SDS011;2392;52.578;13.426;2023-07-13T08:34:13;3.60;;;3.40;;
4756;SDS011;2392;52.578;13.426;2023-07-13T08:36:41;3.70;;;3.50;;
4756;SDS011;2392;52.578;13.426;2023-07-13T08:39:09;3.90;;;3.60;;
4756;SDS011;2392;52.578;13.426;2023-07-13T08:41:36;7.30;;;3.90;;
4756;SDS011;2392;52.578;13.426;2023-07-13T08:44:03;4.93;;;4.53;;
4756;SDS011;2392;52.578;13.426;2023-07-13T08:46:38;3.30;;;3.10;;
4756;SDS011;2392;52.578;13.426;2023-07-13T08:49:09;3.30;;;3.20;;
4756;SDS011;2392;52.578;13.426;2023-07-13T08:51:41;4.03;;;3.73;;
4756;SDS011;2392;52.578;13.426;2023-07-13T08:54:14;4.20;;;3.90;;
4756;SDS011;2392;52.578;13.426;2023-07-13T08:56:46;4.20;;;3.87;;
4756;SDS011;2392;52.578;13.426;2023-07-13T08:59:19;4.00;;;3.80;;
4756;SDS011;2392;52.578;13.426;2023-07-13T09:01:54;3.60;;;3.30;;
4756;SDS011;2392;52.578;13.426;2023-07-13T09:04:48;6.53;;;3.10;;
4756;SDS011;2392;52.578;13.426;2023-07-13T09:07:19;3.17;;;2.97;;
4756;SDS011;2392;52.578;13.426;2023-07-13T09:09:56;5.87;;;3.43;;
4756;SDS011;2392;52.578;13.426;2023-07-13T09:12:34;6.87;;;3.50;;
4756;SDS011;2392;52.578;13.426;2023-07-13T09:15:14;4.40;;;3.23;;
4756;SDS011;2392;52.578;13.426;2023-07-13T09:17:51;3.60;;;3.07;;
4756;SDS011;2392;52.578;13.426;2023-07-13T09:20:23;8.53;;;3.60;;
4756;SDS011;2392;52.578;13.426;2023-07-13T09:22:55;5.63;;;3.33;;
4756;SDS011;2392;52.578;13.426;2023-07-13T09:25:26;8.47;;;3.30;;
4756;SDS011;2392;52.578;13.426;2023-07-13T09:27:57;3.70;;;3.50;;
4756;SDS011;2392;52.578;13.426;2023-07-13T09:30:30;4.00;;;3.77;;
4756;SDS011;2392;52.578;13.426;2023-07-13T09:33:04;4.87;;;3.47;;
4756;SDS011;2392;52.578;13.426;2023-07-13T09:35:31;4.10;;;3.10;;
4756;SDS011;2392;52.578;13.426;2023-07-13T09:38:04;5.70;;;3.40;;
4756;SDS011;2392;52.578;13.426;2023-07-13T09:40:43;3.70;;;3.30;;
4756;SDS011;2392;52.578;13.426;2023-07-13T09:43:16;4.80;;;3.53;;
4756;SDS011;2392;52.578;13.426;2023-07-13T09:45:45;7.13;;;3.53;;
4756;SDS011;2392;52.578;13.426;2023-07-13T09:48:15;6.43;;;3.67;;
4756;SDS011;2392;52.578;13.426;2023-07-13T09:50:43;3.83;;;3.53;;
4756;SDS011;2392;52.578;13.426;2023-07-13T09:53:11;5.90;;;3.60;;
4756;SDS011;2392;52.578;13.426;2023-07-13T09:55:40;3.93;;;3.67;;
4756;SDS011;2392;52.578;13.426;2023-07-13T09:58:09;4.23;;;3.40;;
4756;SDS011;2392;52.578;13.426;2023-07-13T10:00:38;3.97;;;3.60;;
4756;SDS011;2392;52.578;13.426;2023-07-13T10:03:16;5.67;;;4.20;;
4756;SDS011;2392;52.578;13.426;2023-07-13T10:05:46;4.90;;;4.20;;
4756;SDS011;2392;52.578;13.426;2023-07-13T10:08:17;4.10;;;3.73;;
4756;SDS011;2392;52.578;13.426;2023-07-13T10:10:52;4.30;;;3.93;;
4756;SDS011;2392;52.578;13.426;2023-07-13T10:13:27;4.63;;;3.97;;
4756;SDS011;2392;52.578;13.426;2023-07-13T10:15:57;7.80;;;4.17;;
4756;SDS011;2392;52.578;13.426;2023-07-13T10:18:27;4.27;;;3.97;;
4756;SDS011;2392;52.578;13.426;2023-07-13T10:20:58;4.53;;;4.13;;
4756;SDS011;2392;52.578;13.426;2023-07-13T10:23:36;4.27;;;3.97;;
4756;SDS011;2392;52.578;13.426;2023-07-13T10:26:04;4.53;;;3.70;;
4756;SDS011;2392;52.578;13.426;2023-07-13T10:28:36;7.30;;;3.80;;
4756;SDS011;2392;52.578;13.426;2023-07-13T10:31:04;4.00;;;3.70;;
4756;SDS011;2392;52.578;13.426;2023-07-13T10:33:38;5.10;;;3.60;;
4756;SDS011;2392;52.578;13.426;2023-07-13T10:36:22;4.40;;;4.10;;
4756;SDS011;2392;52.578;13.426;2023-07-13T10:38:56;6.07;;;3.97;;
4756;SDS011;2392;52.578;13.426;2023-07-13T10:41:26;4.97;;;4.20;;
4756;SDS011;2392;52.578;13.426;2023-07-13T10:43:56;4.03;;;3.73;;
4756;SDS011;2392;52.578;13.426;2023-07-13T10:46:25;4.60;;;4.10;;
4756;SDS011;2392;52.578;13.426;2023-07-13T10:48:56;6.50;;;3.20;;
4756;SDS011;2392;52.578;13.426;2023-07-13T10:51:27;4.73;;;3.90;;
4756;SDS011;2392;52.578;13.426;2023-07-13T10:54:10;3.73;;;3.43;;
4756;SDS011;2392;52.578;13.426;2023-07-13T10:56:41;4.40;;;4.10;;
4756;SDS011;2392;52.578;13.426;2023-07-13T10:59:10;4.13;;;3.73;;
4756;SDS011;2392;52.578;13.426;2023-07-13T11:01:50;4.77;;;3.73;;
4756;SDS011;2392;52.578;13.426;2023-07-13T11:04:23;4.40;;;3.63;;
4756;SDS011;2392;52.578;13.426;2023-07-13T11:06:53;9.20;;;3.53;;
4756;SDS011;2392;52.578;13.426;2023-07-13T11:09:34;3.93;;;3.63;;
4756;SDS011;2392;52.578;13.426;2023-07-13T11:12:08;5.07;;;4.00;;
4756;SDS011;2392;52.578;13.426;2023-07-13T11:15:03;6.90;;;5.00;;
4756;SDS011;2392;52.578;13.426;2023-07-13T11:17:37;3.67;;;3.43;;
4756;SDS011;2392;52.578;13.426;2023-07-13T11:20:21;4.90;;;4.50;;
4756;SDS011;2392;52.578;13.426;2023-07-13T11:25:55;3.83;;;3.60;;
4756;SDS011;2392;52.578;13.426;2023-07-13T11:28:23;3.60;;;3.40;;
4756;SDS011;2392;52.578;13.426;2023-07-13T11:33:50;4.50;;;4.10;;
4756;SDS011;2392;52.578;13.426;2023-07-13T11:36:22;7.80;;;4.03;;
4756;SDS011;2392;52.578;13.426;2023-07-13T11:38:55;3.97;;;3.70;;
4756;SDS011;2392;52.578;13.426;2023-07-13T11:41:27;3.97;;;3.67;;
4756;SDS011;2392;52.578;13.426;2023-07-13T11:44:01;4.53;;;3.90;;
4756;SDS011;2392;52.578;13.426;2023-07-13T11:46:33;4.43;;;3.30;;
4756;SDS011;2392;52.578;13.426;2023-07-13T11:49:00;7.23;;;4.10;;
4756;SDS011;2392;52.578;13.426;2023-07-13T11:51:29;4.17;;;3.87;;
4756;SDS011;2392;52.578;13.426;2023-07-13T11:53:59;4.70;;;3.93;;
4756;SDS011;2392;52.578;13.426;2023-07-13T11:56:29;4.17;;;3.87;;
4756;SDS011;2392;52.578;13.426;2023-07-13T11:59:07;4.23;;;3.90;;
4756;SDS011;2392;52.578;13.426;2023-07-13T12:01:41;4.53;;;4.00;;
4756;SDS011;2392;52.578;13.426;2023-07-13T12:04:12;4.03;;;3.83;;
4756;SDS011;2392;52.578;13.426;2023-07-13T12:06:49;4.70;;;3.83;;
4756;SDS011;2392;52.578;13.426;2023-07-13T12:09:21;4.17;;;3.70;;
4756;SDS011;2392;52.578;13.426;2023-07-13T12:11:51;4.37;;;3.80;;
4756;SDS011;2392;52.578;13.426;2023-07-13T12:14:18;4.30;;;3.97;;
4756;SDS011;2392;52.578;13.426;2023-07-13T12:16:46;3.87;;;3.57;;
4756;SDS011;2392;52.578;13.426;2023-07-13T12:19:17;3.83;;;3.63;;
4756;SDS011;2392;52.578;13.426;2023-07-13T12:21:47;4.23;;;3.73;;
4756;SDS011;2392;52.578;13.426;2023-07-13T12:24:15;7.07;;;3.97;;
4756;SDS011;2392;52.578;13.426;2023-07-13T12:26:44;4.40;;;4.00;;
4756;SDS011;2392;52.578;13.426;2023-07-13T12:29:17;4.70;;;3.60;;
4756;SDS011;2392;52.578;13.426;2023-07-13T12:31:45;8.00;;;3.93;;
4756;SDS011;2392;52.578;13.426;2023-07-13T12:34:14;4.07;;;3.70;;
4756;SDS011;2392;52.578;13.426;2023-07-13T12:36:45;5.20;;;3.93;;
4756;SDS011;2392;52.578;13.426;2023-07-13T12:39:16;3.93;;;3.63;;
4756;SDS011;2392;52.578;13.426;2023-07-13T12:41:46;3.90;;;3.60;;
4756;SDS011;2392;52.578;13.426;2023-07-13T12:44:16;4.90;;;3.40;;
4756;SDS011;2392;52.578;13.426;2023-07-13T12:46:55;8.57;;;4.50;;
4756;SDS011;2392;52.578;13.426;2023-07-13T12:49:26;4.73;;;4.33;;
4756;SDS011;2392;52.578;13.426;2023-07-13T12:51:56;6.20;;;4.17;;
4756;SDS011;2392;52.578;13.426;2023-07-13T12:54:27;6.17;;;3.70;;
4756;SDS011;2392;52.578;13.426;2023-07-13T12:56:55;5.83;;;3.40;;
4756;SDS011;2392;52.578;13.426;2023-07-13T12:59:25;5.10;;;3.67;;
4756;SDS011;2392;52.578;13.426;2023-07-13T13:01:58;4.10;;;3.80;;
4756;SDS011;2392;52.578;13.426;2023-07-13T13:04:26;5.00;;;4.33;;
4756;SDS011;2392;52.578;13.426;2023-07-13T13:07:02;4.00;;;3.73;;
4756;SDS011;2392;52.578;13.426;2023-07-13T13:09:33;9.10;;;4.40;;
4756;SDS011;2392;52.578;13.426;2023-07-13T13:12:00;3.63;;;3.43;;
4756;SDS011;2392;52.578;13.426;2023-07-13T13:14:27;4.10;;;3.77;;
4756;SDS011;2392;52.578;13.426;2023-07-13T13:16:55;3.77;;;3.57;;
4756;SDS011;2392;52.578;13.426;2023-07-13T13:19:23;4.40;;;4.00;;
4756;SDS011;2392;52.578;13.426;2023-07-13T13:21:52;3.83;;;3.40;;
4756;SDS011;2392;52.578;13.426;2023-07-13T13:24:22;4.73;;;3.20;;
4756;SDS011;2392;52.578;13.426;2023-07-13T13:26:51;6.60;;;3.97;;
4756;SDS011;2392;52.578;13.426;2023-07-13T13:29:22;4.10;;;3.57;;
4756;SDS011;2392;52.578;13.426;2023-07-13T13:31:50;4.80;;;3.60;;
4756;SDS011;2392;52.578;13.426;2023-07-13T13:34:18;4.33;;;3.90;;
4756;SDS011;2392;52.578;13.426;2023-07-13T13:36:48;3.47;;;3.27;;
4756;SDS011;2392;52.578;13.426;2023-07-13T13:39:21;5.40;;;3.40;;
4756;SDS011;2392;52.578;13.426;2023-07-13T13:41:49;3.40;;;3.20;;
4756;SDS011;2392;52.578;13.426;2023-07-13T13:44:19;7.73;;;3.80;;
4756;SDS011;2392;52.578;13.426;2023-07-13T13:46:47;3.27;;;3.07;;
4756;SDS011;2392;52.578;13.426;2023-07-13T13:49:17;4.63;;;3.30;;
4756;SDS011;2392;52.578;13.426;2023-07-13T13:51:47;3.83;;;2.93;;
4756;SDS011;2392;52.578;13.426;2023-07-13T13:54:15;4.07;;;3.80;;
4756;SDS011;2392;52.578;13.426;2023-07-13T13:56:44;3.87;;;3.67;;
4756;SDS011;2392;52.578;13.426;2023-07-13T13:59:13;4.43;;;3.70;;
4756;SDS011;2392;52.578;13.426;2023-07-13T14:01:40;4.77;;;3.63;;
4756;SDS011;2392;52.578;13.426;2023-07-13T14:04:12;5.23;;;3.63;;
4756;SDS011;2392;52.578;13.426;2023-07-13T14:06:43;4.37;;;3.43;;
4756;SDS011;2392;52.578;13.426;2023-07-13T14:09:11;5.37;;;3.80;;
4756;SDS011;2392;52.578;13.426;2023-07-13T14:11:41;4.67;;;3.30;;
4756;SDS011;2392;52.578;13.426;2023-07-13T14:14:09;3.50;;;3.20;;
4756;SDS011;2392;52.578;13.426;2023-07-13T14:16:41;3.37;;;3.10;;
4756;SDS011;2392;52.578;13.426;2023-07-13T14:19:10;3.17;;;2.97;;
4756;SDS011;2392;52.578;13.426;2023-07-13T14:21:39;3.40;;;3.20;;
4756;SDS011;2392;52.578;13.426;2023-07-13T14:24:06;5.47;;;3.70;;
4756;SDS011;2392;52.578;13.426;2023-07-13T14:26:35;8.07;;;3.30;;
4756;SDS011;2392;52.578;13.426;2023-07-13T14:29:05;8.57;;;3.47;;
4756;SDS011;2392;52.578;13.426;2023-07-13T14:31:41;3.43;;;3.17;;
4756;SDS011;2392;52.578;13.426;2023-07-13T14:34:08;3.30;;;3.20;;
4756;SDS011;2392;52.578;13.426;2023-07-13T14:36:37;6.73;;;3.60;;
4756;SDS011;2392;52.578;13.426;2023-07-13T14:39:10;5.20;;;3.60;;
4756;SDS011;2392;52.578;13.426;2023-07-13T14:41:38;3.40;;;3.20;;
4756;SDS011;2392;52.578;13.426;2023-07-13T14:44:09;11.90;;;4.17;;
4756;SDS011;2392;52.578;13.426;2023-07-13T14:46:38;5.07;;;3.47;;
4756;SDS011;2392;52.578;13.426;2023-07-13T14:49:07;4.27;;;3.87;;
4756;SDS011;2392;52.578;13.426;2023-07-13T14:51:54;3.50;;;3.20;;
4756;SDS011;2392;52.578;13.426;2023-07-13T14:54:22;3.63;;;3.33;;
4756;SDS011;2392;52.578;13.426;2023-07-13T14:56:50;3.20;;;3.00;;
4756;SDS011;2392;52.578;13.426;2023-07-13T14:59:17;4.10;;;3.40;;
4756;SDS011;2392;52.578;13.426;2023-07-13T15:01:45;3.23;;;3.03;;
4756;SDS011;2392;52.578;13.426;2023-07-13T15:04:13;3.43;;;3.13;;
4756;SDS011;2392;52.578;13.426;2023-07-13T15:06:54;3.03;;;2.80;;
4756;SDS011;2392;52.578;13.426;2023-07-13T15:09:22;3.40;;;3.10;;
4756;SDS011;2392;52.578;13.426;2023-07-13T15:11:51;4.40;;;2.87;;
4756;SDS011;2392;52.578;13.426;2023-07-13T15:14:18;3.33;;;3.03;;
4756;SDS011;2392;52.578;13.426;2023-07-13T15:16:46;5.17;;;2.70;;
4756;SDS011;2392;52.578;13.426;2023-07-13T15:19:17;5.43;;;3.07;;